Aérodrome :
LOGIN :

S'inscrire | Disclaimer

   EN    FR    IT 

 










Légende :    VFR   VFR Marginal   IFR   IFR Intensif   IFR Très Intensif
Visi : 
Plafond : 
>= 8 km
>= 3000ft
5 à 8 km
1000 à 3000 ft
1500m à 5 km
500 à 1000 ft
800 à 1500m
200 à 500 ft
< 800m
< 200 ft
Symboles :   Orages  Brouillard  Fortes neiges  Fortes précipitations  Vent > 20 kt
SIGMETs :   Divers  Orages  Givrage  Turbulence  Onde Orograph.  Cendres Volcan.







- Altitude de l'aérodrome : 202 ft
- Code IATA : LGW
- Voir les cartes d'approche


EGKK - London Gatwick

DERNIER METAR :
  • 252020Z 32007KT CAVOK 05/M00 Q1014

METARs EXPIRÉS :
  • 251950Z 33008KT CAVOK 06/M00 Q1014
  • 251920Z 36010KT 310V040 CAVOK 06/00 Q1013
  • 251850Z 35011G21KT 310V030 9999 FEW043 08/M01 Q1013
  • 251820Z 01009KT 340V040 9999 FEW048 08/M02 Q1013
  • 251750Z 01010KT 9999 FEW012 SCT031 BKN044 08/00 Q1013

TAF TAF EGKK
Valide du 25 à 18h jusqu'au 27 à 00h UTC


251651Z 2518/2624 35008KT 9999 FEW045
PROB30
TEMPO 2518/2520 01018G28KT 5000 SHRAGS
TEMPO 2610/2621 7000 SHRA
PROB30
TEMPO 2613/2619 4000 +SHRA
Pas de NOTAMs connus pour ce terrain.



MET'MAP, la Météo Aéronautique d'un coup d'oeil ! - Copyright ORBIFLY Décembre 2007 - Disclaimer

ORBIFLY MET'MAP TEAM :

Programmation & Développement : Alexandra Zaïnal
Conception & Développement : Baudouin d'Aumeries
Co-Programmation & Développement : Marc-Olivier Méhu
Soutien technique & logistique : Manuel Goepfert

Contact : metmap@orbifly.com




SOURCES & CREDITS :

   NOAA